Time;durP1;ratioP1;P1;durP2;ratioP2;P2;SDS_P1;SDS_P2;PMS_P1;PMS_P2;Temp;Humidity;BMP_temperature;BMP_pressure;BME280_temperature;BME280_humidity;BME280_pressure;Samples;Min_cycle;Max_cycle;Signal;HPM_P1;HPM_P2
2022/01/15 00:01:30;;;;;;;;;;;;;;;7.54;50.27;99699.88;5013344;28;20046;-83
2022/01/15 00:03:56;;;;;;;;;;;;;;;7.48;50.13;99703.38;5026342;28;19967;-83
2022/01/15 00:06:21;;;;;;;;;;;;;;;7.53;50.88;99706.84;5027328;28;19913;-82
2022/01/15 00:08:46;;;;;;;;;;;;;;;7.48;50.74;99702.53;5026598;28;19913;-83
2022/01/15 00:11:12;;;;;;;;;;;;;;;7.54;50.20;99699.88;5008876;28;19913;-82
2022/01/15 00:13:39;;;;;;;;;;;;;;;7.46;50.87;99686.78;5007313;28;19918;-83
2022/01/15 00:16:09;;;;;;;;;;;;;;;7.37;50.95;99707.78;5006893;28;19956;-82
2022/01/15 00:18:47;;;;;;;;;;;;;;;7.38;50.89;99712.13;5040515;28;20007;-81
2022/01/15 00:21:13;;;;;;;;;;;;;;;7.48;51.33;99719.13;5018679;28;19918;-81
2022/01/15 00:23:39;;;;;;;;;;;;;;;7.52;51.64;99712.13;5006497;28;19909;-81
2022/01/15 00:26:04;;;;;;;;;;;;;;;7.55;51.01;99719.97;5006888;28;19913;-81
2022/01/15 00:28:29;;;;;;;;;;;;;;;7.51;51.21;99739.25;5006642;28;19909;-82
2022/01/15 00:30:55;;;;;;;;;;;;;;;7.45;52.29;99737.50;5016951;28;19914;-82
2022/01/15 00:33:20;;;;;;;;;;;;;;;7.40;51.77;99751.50;5007031;28;19921;-81
2022/01/15 00:35:45;;;;;;;;;;;;;;;7.32;52.36;99759.38;5007219;28;20366;-82
2022/01/15 00:38:11;;;;;;;;;;;;;;;7.39;52.09;99745.41;5017451;28;20362;-82
2022/01/15 00:40:36;;;;;;;;;;;;;;;7.30;52.40;99741.03;5023630;28;19918;-82
2022/01/15 00:43:01;;;;;;;;;;;;;;;7.34;52.79;99744.53;5006910;28;19909;-83
2022/01/15 00:45:32;;;;;;;;;;;;;;;7.23;53.47;99760.28;5005120;28;19913;-82
2022/01/15 00:47:57;;;;;;;;;;;;;;;7.24;53.28;99758.53;5006415;28;19920;-82
2022/01/15 00:50:22;;;;;;;;;;;;;;;7.23;53.22;99762.00;5006629;28;19913;-83
2022/01/15 00:52:48;;;;;;;;;;;;;;;7.22;53.58;99776.91;5040073;28;19972;-82
2022/01/15 00:55:14;;;;;;;;;;;;;;;7.21;53.27;99774.28;5026094;28;19913;-81
2022/01/15 00:57:40;;;;;;;;;;;;;;;7.23;53.08;99770.78;5024207;28;19924;-82
2022/01/15 01:00:06;;;;;;;;;;;;;;;7.30;53.29;99769.03;5025730;28;20382;-82
2022/01/15 01:02:32;;;;;;;;;;;;;;;7.31;52.62;99774.28;5022783;28;19917;-82
2022/01/15 01:04:57;;;;;;;;;;;;;;;7.34;52.97;99760.28;5025171;28;19939;-83
2022/01/15 01:07:22;;;;;;;;;;;;;;;7.38;52.50;99769.03;5025496;28;19913;-82
2022/01/15 01:20:56;;;;;;;;;;;;;;;7.46;52.67;99772.50;5006314;28;20307;-83
2022/01/15 01:23:20;;;;;;;;;;;;;;;7.49;52.15;99769.88;5025708;28;19924;-82
2022/01/15 01:25:49;;;;;;;;;;;;;;;7.49;51.28;99775.13;5025875;28;20291;-83
2022/01/15 01:28:26;;;;;;;;;;;;;;;7.59;50.77;99783.88;5025949;28;19913;-83
2022/01/15 01:31:09;;;;;;;;;;;;;;;7.45;50.40;99771.63;5011563;28;19921;-83
2022/01/15 01:33:39;;;;;;;;;;;;;;;7.53;50.34;99784.75;5024237;28;19925;-82
2022/01/15 01:38:58;;;;;;;;;;;;;;;7.53;49.39;99803.13;5025635;28;19917;-83
2022/01/15 01:41:24;;;;;;;;;;;;;;;7.59;48.99;99792.63;5015744;28;19917;-83
2022/01/15 01:43:57;;;;;;;;;;;;;;;7.63;49.52;99815.38;5030531;28;19959;-83
2022/01/15 01:48:51;;;;;;;;;;;;;;;7.67;49.20;99805.72;5029371;28;19909;-83
2022/01/15 01:51:31;;;;;;;;;;;;;;;7.69;48.90;99815.38;5015679;28;19943;-83
2022/01/15 01:53:57;;;;;;;;;;;;;;;7.69;49.13;99811.84;5029771;28;19955;-83
2022/01/15 01:56:22;;;;;;;;;;;;;;;7.55;49.46;99821.50;5029282;28;19913;-83
2022/01/15 01:58:48;;;;;;;;;;;;;;;7.53;49.36;99808.38;5028935;28;20849;-83
2022/01/15 02:01:13;;;;;;;;;;;;;;;7.57;49.73;99810.13;5014366;28;19921;-82
2022/01/15 02:03:39;;;;;;;;;;;;;;;7.50;50.04;99814.50;5028843;28;20731;-83
2022/01/15 02:06:04;;;;;;;;;;;;;;;7.50;49.64;99809.25;5022983;28;20005;-84
2022/01/15 02:08:33;;;;;;;;;;;;;;;7.50;50.13;99809.25;5009152;28;19921;-83
2022/01/15 02:10:59;;;;;;;;;;;;;;;7.51;50.83;99815.38;5008466;28;19918;-84
2022/01/15 02:13:24;;;;;;;;;;;;;;;7.53;50.82;99816.25;5008851;28;19910;-83
2022/01/15 02:15:49;;;;;;;;;;;;;;;7.50;50.55;99818.88;5019092;28;19924;-82
2022/01/15 02:18:15;;;;;;;;;;;;;;;7.62;50.23;99818.88;5028885;28;19916;-83
2022/01/15 02:25:56;;;;;;;;;;;;;;;7.52;51.71;99835.50;5017312;28;20472;-82
2022/01/15 02:28:26;;;;;;;;;;;;;;;7.53;50.99;99839.88;5040768;28;20273;-83
2022/01/15 02:30:55;;;;;;;;;;;;;;;7.58;51.38;99843.38;5008344;28;19913;-83
2022/01/15 02:33:20;;;;;;;;;;;;;;;7.57;51.37;99856.50;5025108;28;19917;-82
2022/01/15 02:35:46;;;;;;;;;;;;;;;7.63;51.02;99873.13;5024555;28;19917;-83
2022/01/15 02:38:12;;;;;;;;;;;;;;;7.58;51.51;99876.63;5009294;28;20373;-84
2022/01/15 02:40:38;;;;;;;;;;;;;;;7.67;51.76;99881.88;5008654;28;20442;-83
2022/01/15 02:43:07;;;;;;;;;;;;;;;7.58;51.91;99880.13;5008391;28;19917;-84
2022/01/15 02:45:34;;;;;;;;;;;;;;;7.59;51.70;99879.25;5007443;28;19917;-82
2022/01/15 02:48:18;;;;;;;;;;;;;;;7.62;51.91;99881.88;5027173;28;19915;-83
2022/01/15 02:50:44;;;;;;;;;;;;;;;7.60;52.83;99885.38;5028158;28;19916;-83
2022/01/15 02:53:10;;;;;;;;;;;;;;;7.66;52.46;99886.28;5024897;28;20406;-82
2022/01/15 02:55:40;;;;;;;;;;;;;;;7.50;53.20;99895.00;5027822;28;20039;-83
2022/01/15 02:58:05;;;;;;;;;;;;;;;7.28;54.18;99899.38;5026641;28;19912;-81
2022/01/15 03:00:30;;;;;;;;;;;;;;;7.34;53.46;99896.75;5021690;28;20426;-81
2022/01/15 03:02:56;;;;;;;;;;;;;;;7.27;54.53;99897.59;5015376;28;19909;-80
2022/01/15 03:05:21;;;;;;;;;;;;;;;7.27;54.28;99895.84;5007005;28;20711;-80
2022/01/15 03:07:47;;;;;;;;;;;;;;;7.21;55.22;99897.59;5007850;28;20460;-80
2022/01/15 03:10:12;;;;;;;;;;;;;;;7.08;55.24;99901.94;5007479;28;19920;-80
2022/01/15 03:12:38;;;;;;;;;;;;;;;7.13;55.08;99900.19;5015749;28;19920;-83
2022/01/15 03:15:05;;;;;;;;;;;;;;;7.14;55.64;99899.34;5018554;28;20438;-82
2022/01/15 03:17:31;;;;;;;;;;;;;;;7.14;55.85;99894.94;5026787;28;19913;-83
2022/01/15 03:19:56;;;;;;;;;;;;;;;7.08;55.72;99900.19;5023122;28;19913;-84
2022/01/15 03:22:22;;;;;;;;;;;;;;;7.03;55.82;99899.31;5007970;28;20396;-83
2022/01/15 03:24:48;;;;;;;;;;;;;;;7.01;56.06;99897.53;5015193;28;20031;-84
2022/01/15 03:27:13;;;;;;;;;;;;;;;6.94;56.74;99894.03;5015735;28;19963;-82
2022/01/15 03:29:38;;;;;;;;;;;;;;;7.01;56.60;99894.91;5007915;28;20013;-83
2022/01/15 03:32:04;;;;;;;;;;;;;;;6.82;56.82;99894.84;5007424;28;19920;-82
2022/01/15 03:34:29;;;;;;;;;;;;;;;6.83;56.68;99899.25;5012401;28;20331;-82
2022/01/15 03:36:55;;;;;;;;;;;;;;;6.92;56.41;99904.53;5027065;28;19917;-82
2022/01/15 03:39:20;;;;;;;;;;;;;;;6.96;56.02;99906.25;5017888;28;19918;-84
2022/01/15 03:41:46;;;;;;;;;;;;;;;6.98;56.63;99909.78;5007636;28;20375;-83
2022/01/15 03:44:11;;;;;;;;;;;;;;;7.03;56.20;99914.16;5009571;28;19947;-83
2022/01/15 03:46:36;;;;;;;;;;;;;;;7.12;56.08;99917.69;5021014;28;19941;-82
2022/01/15 03:49:02;;;;;;;;;;;;;;;7.14;56.02;99926.44;5007396;28;19914;-83
2022/01/15 03:51:27;;;;;;;;;;;;;;;7.08;56.65;99928.19;5007661;28;20285;-83
2022/01/15 03:53:52;;;;;;;;;;;;;;;7.15;56.99;99943.03;5005927;28;19913;-83
2022/01/15 03:56:18;;;;;;;;;;;;;;;7.20;56.32;99946.56;5023184;28;19909;-82
2022/01/15 03:58:43;;;;;;;;;;;;;;;7.16;56.51;99947.44;5006823;28;19914;-82
2022/01/15 04:01:08;;;;;;;;;;;;;;;7.27;56.09;99945.69;5040798;28;20371;-82
2022/01/15 04:03:34;;;;;;;;;;;;;;;7.26;56.49;99957.09;5026393;28;19963;-82
2022/01/15 04:05:59;;;;;;;;;;;;;;;7.28;56.71;99957.09;5025311;28;19909;-82
2022/01/15 04:08:24;;;;;;;;;;;;;;;7.51;55.91;99951.88;5026511;28;19920;-82
2022/01/15 04:10:50;;;;;;;;;;;;;;;7.41;56.65;99955.38;5006669;28;19920;-82
2022/01/15 04:13:15;;;;;;;;;;;;;;;7.41;56.44;99958.00;5005642;28;19920;-82
2022/01/15 04:15:44;;;;;;;;;;;;;;;7.42;56.56;99965.88;5019996;28;19995;-83
2022/01/15 04:18:09;;;;;;;;;;;;;;;7.29;57.17;99971.94;5010269;28;20008;-83
2022/01/15 04:20:35;;;;;;;;;;;;;;;7.32;57.10;99985.97;5037261;28;20444;-82
2022/01/15 04:23:00;;;;;;;;;;;;;;;7.44;56.41;100000.00;5006995;28;20029;-83
2022/01/15 04:25:26;;;;;;;;;;;;;;;7.55;56.07;100013.13;5005424;28;19910;-83
2022/01/15 04:27:51;;;;;;;;;;;;;;;7.51;56.43;100012.28;5005851;28;19909;-82
2022/01/15 04:30:21;;;;;;;;;;;;;;;7.61;55.95;100014.03;5006377;28;19967;-82
2022/01/15 04:32:47;;;;;;;;;;;;;;;7.69;56.28;100021.91;5006715;28;19944;-82
2022/01/15 04:35:12;;;;;;;;;;;;;;;7.67;55.74;100024.53;5024867;28;19909;-82
2022/01/15 04:37:42;;;;;;;;;;;;;;;7.73;56.10;100028.06;5013610;28;19913;-82
2022/01/15 04:40:08;;;;;;;;;;;;;;;7.66;55.67;100028.06;5016975;28;19972;-82
2022/01/15 04:42:34;;;;;;;;;;;;;;;7.77;55.91;100035.97;5025115;28;19924;-82
2022/01/15 04:45:01;;;;;;;;;;;;;;;7.73;55.76;100030.69;5026410;28;20330;-83
2022/01/15 04:47:26;;;;;;;;;;;;;;;7.83;55.79;100041.22;5025031;28;20247;-82
2022/01/15 04:49:54;;;;;;;;;;;;;;;7.85;55.70;100047.34;5017816;28;19914;-83
2022/01/15 04:52:19;;;;;;;;;;;;;;;8.11;55.36;100056.13;5011169;28;20556;-83
2022/01/15 04:54:44;;;;;;;;;;;;;;;8.04;54.43;100066.63;5024552;28;19913;-82
2022/01/15 04:57:10;;;;;;;;;;;;;;;8.26;54.40;100071.91;5024942;28;19920;-83
2022/01/15 04:59:35;;;;;;;;;;;;;;;8.26;54.21;100087.66;5016560;28;19929;-82
2022/01/15 05:02:00;;;;;;;;;;;;;;;8.24;54.61;100092.94;5005705;28;19918;-82
2022/01/15 05:04:26;;;;;;;;;;;;;;;8.25;54.40;100096.44;5006738;28;19909;-82
2022/01/15 05:06:51;;;;;;;;;;;;;;;8.21;54.36;100092.06;5005649;28;19920;-82
2022/01/15 05:09:16;;;;;;;;;;;;;;;8.02;55.07;100106.94;5005668;28;19924;-83
2022/01/15 05:11:58;;;;;;;;;;;;;;;8.02;55.38;100107.78;5016415;28;20007;-82
2022/01/15 05:14:23;;;;;;;;;;;;;;;8.01;55.50;100103.41;5025172;28;19916;-82
2022/01/15 05:16:49;;;;;;;;;;;;;;;7.89;55.17;100106.00;5024895;28;19917;-82
2022/01/15 05:19:14;;;;;;;;;;;;;;;8.06;54.88;100111.28;5013943;28;19918;-83
2022/01/15 05:21:40;;;;;;;;;;;;;;;8.11;55.11;100108.69;5016848;28;19952;-82
2022/01/15 05:24:06;;;;;;;;;;;;;;;8.17;54.70;100122.72;5010543;28;19914;-82
2022/01/15 05:26:31;;;;;;;;;;;;;;;8.21;54.84;100115.72;5010345;28;19967;-83
2022/01/15 05:28:57;;;;;;;;;;;;;;;8.00;54.38;100122.69;5025567;28;20371;-82
2022/01/15 05:31:22;;;;;;;;;;;;;;;7.86;55.57;100121.75;5009650;28;19909;-82
2022/01/15 05:33:48;;;;;;;;;;;;;;;7.87;55.02;100128.78;5008914;28;19992;-83
2022/01/15 05:36:13;;;;;;;;;;;;;;;7.83;55.30;100132.25;5009399;28;19914;-82
2022/01/15 05:38:38;;;;;;;;;;;;;;;7.91;55.32;100138.44;5017841;28;19963;-83
2022/01/15 05:41:04;;;;;;;;;;;;;;;7.86;55.02;100143.66;5027990;28;20027;-83
2022/01/15 05:43:29;;;;;;;;;;;;;;;8.11;54.25;100148.09;5026799;28;20381;-82
2022/01/15 05:45:54;;;;;;;;;;;;;;;8.01;54.62;100141.94;5029155;28;20290;-82
2022/01/15 05:48:20;;;;;;;;;;;;;;;8.09;54.98;100134.09;5020241;28;19924;-82
2022/01/15 05:50:45;;;;;;;;;;;;;;;8.04;54.55;100157.72;5028710;28;19920;-82
2022/01/15 05:53:10;;;;;;;;;;;;;;;8.16;54.75;100157.75;5012817;28;19925;-83
2022/01/15 05:55:36;;;;;;;;;;;;;;;8.21;55.00;100163.88;5009196;28;19970;-82
2022/01/15 05:58:01;;;;;;;;;;;;;;;8.28;54.26;100164.78;5012218;28;19917;-82
2022/01/15 06:00:26;;;;;;;;;;;;;;;8.22;54.40;100165.66;5026931;28;19943;-82
2022/01/15 06:02:52;;;;;;;;;;;;;;;8.21;54.76;100169.13;5008777;28;19916;-82
2022/01/15 06:05:17;;;;;;;;;;;;;;;7.95;54.65;100166.44;5009720;28;19945;-82
2022/01/15 06:07:42;;;;;;;;;;;;;;;7.91;55.18;100169.94;5028412;28;19924;-84
2022/01/15 06:10:08;;;;;;;;;;;;;;;7.83;55.61;100179.53;5008790;28;19967;-83
2022/01/15 06:12:42;;;;;;;;;;;;;;;7.85;55.78;100178.69;5008997;28;19909;-83
2022/01/15 06:15:07;;;;;;;;;;;;;;;8.03;54.54;100193.63;5008657;28;20060;-82
2022/01/15 06:17:32;;;;;;;;;;;;;;;8.14;55.55;100206.81;5019021;28;20074;-81
2022/01/15 06:19:58;;;;;;;;;;;;;;;8.09;54.74;100207.66;5008796;28;20435;-82
2022/01/15 06:22:23;;;;;;;;;;;;;;;8.21;55.36;100212.94;5008784;28;19935;-83
2022/01/15 06:24:48;;;;;;;;;;;;;;;8.27;55.05;100209.47;5027006;28;20331;-82
2022/01/15 06:27:16;;;;;;;;;;;;;;;7.90;55.32;100215.47;5010351;28;20296;-82
2022/01/15 06:29:41;;;;;;;;;;;;;;;7.75;55.24;100226.78;5008374;28;20706;-83
2022/01/15 06:32:07;;;;;;;;;;;;;;;8.14;54.55;100225.22;5009949;28;19921;-84
2022/01/15 06:34:32;;;;;;;;;;;;;;;8.00;55.95;100224.25;5026048;28;19953;-82
2022/01/15 06:36:57;;;;;;;;;;;;;;;7.77;56.69;100232.03;5025551;28;20402;-83
2022/01/15 06:39:23;;;;;;;;;;;;;;;7.77;56.37;100237.28;5014523;28;19921;-84
2022/01/15 06:41:48;;;;;;;;;;;;;;;7.78;56.32;100241.69;5008344;28;20055;-83
2022/01/15 06:44:13;;;;;;;;;;;;;;;7.70;56.78;100239.00;5010418;28;19967;-82
2022/01/15 06:46:39;;;;;;;;;;;;;;;7.70;56.54;100236.38;5026945;28;20011;-83
2022/01/15 06:49:04;;;;;;;;;;;;;;;7.80;55.81;100248.72;5019059;28;20012;-83
2022/01/15 06:51:29;;;;;;;;;;;;;;;7.55;56.08;100258.16;5023163;28;19968;-83
2022/01/15 06:53:55;;;;;;;;;;;;;;;7.87;55.71;100268.84;5006790;28;19913;-82
2022/01/15 06:56:20;;;;;;;;;;;;;;;7.70;56.06;100254.78;5027474;28;19913;-83
2022/01/15 06:58:46;;;;;;;;;;;;;;;7.82;55.86;100264.47;5025379;28;19917;-84
2022/01/15 07:01:11;;;;;;;;;;;;;;;7.97;55.61;100268.91;5027170;28;20296;-85
2022/01/15 07:03:37;;;;;;;;;;;;;;;7.90;56.46;100275.88;5027022;28;20020;-85
2022/01/15 07:06:02;;;;;;;;;;;;;;;8.13;55.26;100286.50;5026575;28;19909;-84
2022/01/15 07:08:28;;;;;;;;;;;;;;;8.09;55.82;100297.88;5014808;28;19912;-84
2022/01/15 07:10:53;;;;;;;;;;;;;;;8.15;55.41;100291.78;5013232;28;19918;-82
2022/01/15 07:13:20;;;;;;;;;;;;;;;8.30;55.18;100298.84;5027141;28;19913;-83
2022/01/15 07:15:46;;;;;;;;;;;;;;;8.32;55.21;100304.97;5008572;28;19956;-83
2022/01/15 07:18:11;;;;;;;;;;;;;;;7.97;55.16;100306.59;5014198;28;20011;-83
2022/01/15 07:20:36;;;;;;;;;;;;;;;8.09;54.88;100308.38;5027117;28;20568;-83
2022/01/15 07:23:02;;;;;;;;;;;;;;;8.37;54.57;100312.03;5025979;28;19913;-86
2022/01/15 07:25:27;;;;;;;;;;;;;;;8.12;54.18;100321.53;5026423;28;19913;-82
2022/01/15 07:27:52;;;;;;;;;;;;;;;8.03;55.57;100318.84;5027738;28;19913;-82
2022/01/15 07:30:18;;;;;;;;;;;;;;;7.93;55.14;100328.44;5027402;28;19964;-82
2022/01/15 07:32:43;;;;;;;;;;;;;;;7.75;56.26;100330.97;5023450;28;20338;-82
2022/01/15 07:35:09;;;;;;;;;;;;;;;7.82;55.85;100338.03;5009725;28;20660;-83
2022/01/15 07:37:35;;;;;;;;;;;;;;;8.10;55.56;100339.06;5007488;28;19913;-82
2022/01/15 07:40:01;;;;;;;;;;;;;;;7.99;55.47;100346.88;5006972;28;19917;-82
2022/01/15 07:42:29;;;;;;;;;;;;;;;8.12;55.73;100350.44;5013377;28;19913;-82
2022/01/15 07:44:54;;;;;;;;;;;;;;;8.28;55.11;100353.16;5026972;28;19913;-81
2022/01/15 07:47:19;;;;;;;;;;;;;;;8.22;55.97;100357.50;5025325;28;19939;-82
2022/01/15 07:49:45;;;;;;;;;;;;;;;8.28;55.90;100361.03;5009828;28;19925;-81
2022/01/15 07:52:10;;;;;;;;;;;;;;;8.35;55.81;100358.44;5024563;28;19913;-81
2022/01/15 07:54:36;;;;;;;;;;;;;;;8.23;55.04;100364.53;5026801;28;20736;-80
2022/01/15 07:57:01;;;;;;;;;;;;;;;8.36;55.25;100362.84;5011618;28;19919;-81
2022/01/15 07:59:28;;;;;;;;;;;;;;;8.37;54.33;100361.97;5007030;28;19928;-81
2022/01/15 08:01:53;;;;;;;;;;;;;;;8.26;54.86;100368.91;5016138;28;19970;-81
2022/01/15 08:04:19;;;;;;;;;;;;;;;8.40;55.11;100369.88;5016030;28;19917;-82
2022/01/15 08:06:44;;;;;;;;;;;;;;;8.22;54.66;100380.31;5012240;28;19929;-78
2022/01/15 08:09:09;;;;;;;;;;;;;;;8.37;54.56;100380.38;5022193;28;19943;-77
2022/01/15 08:11:35;;;;;;;;;;;;;;;8.52;54.38;100376.09;5026529;28;20466;-78
2022/01/15 08:14:00;;;;;;;;;;;;;;;8.59;54.94;100373.50;5025368;28;20349;-79
2022/01/15 08:16:26;;;;;;;;;;;;;;;8.75;54.15;100382.31;5026387;28;19909;-77
2022/01/15 08:18:51;;;;;;;;;;;;;;;8.65;55.69;100383.16;5026180;28;19917;-79
2022/01/15 08:21:16;;;;;;;;;;;;;;;8.85;54.13;100385.88;5026552;28;19999;-77
2022/01/15 08:23:42;;;;;;;;;;;;;;;8.89;54.01;100402.53;5026342;28;19913;-77
2022/01/15 08:26:07;;;;;;;;;;;;;;;9.04;53.84;100397.31;5026250;28;20394;-78
2022/01/15 08:28:33;;;;;;;;;;;;;;;9.25;54.37;100399.13;5026082;28;19917;-78
2022/01/15 08:30:58;;;;;;;;;;;;;;;9.30;52.59;100404.38;5026282;28;19913;-78
2022/01/15 08:33:23;;;;;;;;;;;;;;;9.18;52.48;100397.34;5026233;28;19920;-78
2022/01/15 08:35:49;;;;;;;;;;;;;;;9.22;52.54;100408.75;5026091;28;20384;-78
2022/01/15 08:38:14;;;;;;;;;;;;;;;9.21;53.51;100409.63;5026467;28;19921;-79
2022/01/15 08:40:40;;;;;;;;;;;;;;;9.37;52.55;100418.44;5025936;28;19917;-79
2022/01/15 08:43:05;;;;;;;;;;;;;;;9.40;53.01;100419.31;5026308;28;19917;-79
2022/01/15 08:45:31;;;;;;;;;;;;;;;9.23;52.72;100423.69;5025955;28;19916;-79
2022/01/15 08:47:56;;;;;;;;;;;;;;;9.26;52.83;100427.19;5018699;28;19913;-79
2022/01/15 08:50:22;;;;;;;;;;;;;;;9.14;52.38;100427.16;5029694;28;19913;-79
2022/01/15 08:52:48;;;;;;;;;;;;;;;9.03;53.60;100429.75;5029021;28;19948;-79
2022/01/15 08:55:13;;;;;;;;;;;;;;;8.90;54.59;100428.84;5029968;28;19943;-79
2022/01/15 08:57:39;;;;;;;;;;;;;;;8.65;54.93;100435.78;5028065;28;19917;-80
2022/01/15 09:00:06;;;;;;;;;;;;;;;8.51;55.06;100427.81;5030000;28;19917;-81
2022/01/15 09:02:32;;;;;;;;;;;;;;;8.39;55.38;100432.97;5029820;28;19913;-83
2022/01/15 09:04:57;;;;;;;;;;;;;;;8.21;56.50;100423.22;5029404;28;19916;-78
2022/01/15 09:07:22;;;;;;;;;;;;;;;8.21;56.23;100421.44;5030075;28;20375;-79
2022/01/15 09:09:48;;;;;;;;;;;;;;;8.27;56.99;100422.38;5030570;28;19912;-79
2022/01/15 09:12:13;;;;;;;;;;;;;;;8.14;56.32;100411.78;5029928;28;19913;-78
2022/01/15 09:14:38;;;;;;;;;;;;;;;8.21;57.75;100420.59;5029698;28;19912;-79
2022/01/15 09:17:04;;;;;;;;;;;;;;;8.44;57.15;100423.38;5029691;28;19909;-80
2022/01/15 09:19:29;;;;;;;;;;;;;;;8.66;56.57;100421.72;5029937;28;20008;-80
2022/01/15 09:21:54;;;;;;;;;;;;;;;8.62;56.69;100419.97;5029427;28;19923;-79
2022/01/15 09:24:20;;;;;;;;;;;;;;;8.57;56.51;100422.59;5029332;28;19919;-80
2022/01/15 09:27:00;;;;;;;;;;;;;;;8.64;56.10;100425.25;5029737;28;19964;-79
2022/01/15 09:32:10;;;;;;;;;;;;;;;8.54;55.84;100426.94;5028510;28;19916;-79
2022/01/15 09:34:36;;;;;;;;;;;;;;;8.42;55.61;100423.34;5029808;28;19917;-79
2022/01/15 09:37:02;;;;;;;;;;;;;;;8.45;56.66;100424.25;5028968;28;19905;-80
2022/01/15 09:39:28;;;;;;;;;;;;;;;8.41;56.42;100426.81;5029401;28;20736;-79
2022/01/15 09:41:55;;;;;;;;;;;;;;;8.66;56.71;100419.09;5029570;28;19909;-79
2022/01/15 09:44:21;;;;;;;;;;;;;;;8.62;55.56;100413.81;5028549;28;19913;-78
2022/01/15 09:46:47;;;;;;;;;;;;;;;8.82;54.74;100414.78;5028930;28;19913;-79
2022/01/15 09:49:13;;;;;;;;;;;;;;;8.82;56.12;100406.91;5028748;28;19982;-79
2022/01/15 09:51:39;;;;;;;;;;;;;;;9.03;55.50;100405.19;5028513;28;19913;-79
2022/01/15 09:54:04;;;;;;;;;;;;;;;8.93;54.85;100399.91;5029137;28;19955;-79
2022/01/15 09:56:30;;;;;;;;;;;;;;;9.25;54.75;100400.84;5029130;28;19915;-79
2022/01/15 09:58:57;;;;;;;;;;;;;;;8.95;54.97;100387.63;5028500;28;19923;-79
2022/01/15 10:01:23;;;;;;;;;;;;;;;8.84;54.33;100396.38;5027788;28;19916;-78
2022/01/15 10:03:48;;;;;;;;;;;;;;;9.00;54.62;100392.03;5029196;28;20283;-81
2022/01/15 10:06:13;;;;;;;;;;;;;;;9.03;54.25;100397.31;5029359;28;19947;-79
2022/01/15 10:08:40;;;;;;;;;;;;;;;9.11;54.64;100396.47;5017514;28;19960;-78
2022/01/15 10:11:11;;;;;;;;;;;;;;;9.17;54.24;100389.44;5015655;28;20007;-80
2022/01/15 10:13:44;;;;;;;;;;;;;;;9.23;53.83;100394.72;5027040;28;19921;-80
2022/01/15 10:16:14;;;;;;;;;;;;;;;9.09;54.96;100384.16;5028062;28;19913;-77
2022/01/15 10:18:44;;;;;;;;;;;;;;;9.13;54.17;100385.94;5026337;28;20291;-78
2022/01/15 10:21:15;;;;;;;;;;;;;;;9.03;54.79;100385.00;5028144;28;19913;-77
2022/01/15 10:23:48;;;;;;;;;;;;;;;8.90;54.37;100378.84;5028171;28;19909;-78
2022/01/15 10:26:15;;;;;;;;;;;;;;;8.76;55.12;100380.56;5028346;28;20298;-77
2022/01/15 10:28:47;;;;;;;;;;;;;;;8.72;54.71;100377.03;5027489;28;19915;-78
2022/01/15 10:31:20;;;;;;;;;;;;;;;8.91;53.83;100375.34;5026925;28;19917;-78
2022/01/15 10:33:45;;;;;;;;;;;;;;;9.04;54.28;100375.38;5027776;28;20002;-78
2022/01/15 10:36:21;;;;;;;;;;;;;;;9.23;54.56;100379.78;5019897;28;20773;-81
2022/01/15 10:38:46;;;;;;;;;;;;;;;8.96;54.35;100373.59;5007986;28;19917;-82
2022/01/15 10:41:28;;;;;;;;;;;;;;;9.16;54.27;100370.16;5017591;28;19974;-83
2022/01/15 10:43:54;;;;;;;;;;;;;;;9.02;53.71;100362.22;5028132;28;19913;-81
2022/01/15 10:46:31;;;;;;;;;;;;;;;8.90;53.56;100362.19;5022541;28;20478;-81
2022/01/15 10:48:56;;;;;;;;;;;;;;;8.94;54.70;100358.69;5009489;28;19917;-80
2022/01/15 10:51:22;;;;;;;;;;;;;;;9.13;53.12;100355.22;5019142;28;19917;-82
2022/01/15 10:53:47;;;;;;;;;;;;;;;9.09;53.27;100353.44;5027833;28;20654;-81
2022/01/15 10:56:14;;;;;;;;;;;;;;;9.23;52.82;100350.81;5027308;28;19917;-81
2022/01/15 10:58:42;;;;;;;;;;;;;;;9.50;52.69;100349.97;5024945;28;19913;-81
2022/01/15 11:01:10;;;;;;;;;;;;;;;9.75;52.20;100354.34;5027164;28;19913;-81
2022/01/15 11:03:37;;;;;;;;;;;;;;;9.66;52.56;100352.59;5011837;28;19925;-81
2022/01/15 11:06:03;;;;;;;;;;;;;;;9.75;51.87;100349.97;5008277;28;19988;-81
2022/01/15 11:08:28;;;;;;;;;;;;;;;9.77;51.85;100348.19;5014004;28;20004;-81
2022/01/15 11:11:00;;;;;;;;;;;;;;;9.47;51.64;100344.72;5023906;28;19921;-80
2022/01/15 11:13:33;;;;;;;;;;;;;;;9.49;51.41;100340.31;5022864;28;19996;-81
2022/01/15 11:16:17;;;;;;;;;;;;;;;9.47;51.63;100335.94;5022939;28;19909;-81
2022/01/15 11:18:42;;;;;;;;;;;;;;;9.31;53.05;100335.03;5025997;28;19917;-80
2022/01/15 11:21:09;;;;;;;;;;;;;;;9.47;52.23;100326.28;5026503;28;20399;-81
2022/01/15 11:23:35;;;;;;;;;;;;;;;9.41;52.20;100323.63;5026279;28;19915;-81
2022/01/15 11:26:02;;;;;;;;;;;;;;;9.67;52.15;100335.94;5025570;28;19920;-81
2022/01/15 11:28:29;;;;;;;;;;;;;;;9.86;52.57;100329.72;5023188;28;19917;-81
2022/01/15 11:31:02;;;;;;;;;;;;;;;10.16;51.06;100316.47;5023628;28;19913;-81
2022/01/15 11:33:30;;;;;;;;;;;;;;;10.04;51.11;100318.28;5027113;28;20410;-83
2022/01/15 11:35:55;;;;;;;;;;;;;;;9.71;50.72;100324.47;5027420;28;21179;-81
2022/01/15 11:38:39;;;;;;;;;;;;;;;9.80;51.47;100331.50;5026428;28;20345;-81
2022/01/15 11:41:06;;;;;;;;;;;;;;;9.66;51.64;100332.38;5026410;28;19917;-82
2022/01/15 11:43:31;;;;;;;;;;;;;;;9.57;51.94;100323.63;5027656;28;19920;-83
2022/01/15 11:46:16;;;;;;;;;;;;;;;9.53;51.98;100325.41;5026870;28;19909;-82
2022/01/15 11:48:41;;;;;;;;;;;;;;;9.56;50.71;100317.50;5026760;28;19939;-82
2022/01/15 11:51:18;;;;;;;;;;;;;;;9.74;51.55;100318.34;5026588;28;19934;-83
2022/01/15 11:53:47;;;;;;;;;;;;;;;9.69;51.45;100323.63;5026831;28;19941;-81
2022/01/15 11:56:18;;;;;;;;;;;;;;;9.88;50.95;100305.13;5027507;28;19964;-81
2022/01/15 11:58:43;;;;;;;;;;;;;;;9.82;51.66;100306.91;5027087;28;19920;-82
2022/01/15 12:01:27;;;;;;;;;;;;;;;9.85;50.91;100300.75;5026091;28;19940;-80
2022/01/15 12:04:12;;;;;;;;;;;;;;;9.57;50.18;100306.06;5026580;28;19913;-82
2022/01/15 12:06:56;;;;;;;;;;;;;;;9.82;50.61;100303.38;5025208;28;19924;-84
2022/01/15 12:09:42;;;;;;;;;;;;;;;9.77;51.30;100306.03;5006849;28;19918;-81
2022/01/15 12:12:20;;;;;;;;;;;;;;;9.71;49.79;100302.53;5011315;28;19943;-82
2022/01/15 12:14:48;;;;;;;;;;;;;;;9.93;49.58;100293.72;5023635;28;19920;-81
2022/01/15 12:17:30;;;;;;;;;;;;;;;9.73;50.29;100287.59;5025498;28;20264;-82
2022/01/15 12:19:56;;;;;;;;;;;;;;;10.02;49.53;100295.44;5025943;28;19928;-83
2022/01/15 12:22:44;;;;;;;;;;;;;;;9.86;49.56;100289.34;5026597;28;19909;-84
2022/01/15 12:25:13;;;;;;;;;;;;;;;9.83;50.15;100287.56;5024844;28;19917;-81
2022/01/15 12:27:40;;;;;;;;;;;;;;;9.82;48.87;100285.84;5026203;28;20461;-83
2022/01/15 12:30:19;;;;;;;;;;;;;;;9.89;48.78;100286.69;5026342;28;19932;-84
2022/01/15 12:32:46;;;;;;;;;;;;;;;9.77;47.86;100281.44;5025180;28;19944;-83
2022/01/15 12:35:16;;;;;;;;;;;;;;;9.78;47.26;100292.00;5025971;28;20392;-84
2022/01/15 12:37:59;;;;;;;;;;;;;;;9.94;46.76;100294.59;5026521;28;19999;-83
2022/01/15 12:40:33;;;;;;;;;;;;;;;9.97;46.51;100297.22;5025358;28;19956;-84
2022/01/15 12:42:59;;;;;;;;;;;;;;;9.83;46.32;100298.13;5026261;28;19913;-84
2022/01/15 12:45:25;;;;;;;;;;;;;;;9.64;46.48;100294.66;5026456;28;19975;-83
2022/01/15 12:47:51;;;;;;;;;;;;;;;9.83;45.95;100300.75;5025192;28;20526;-82
2022/01/15 12:50:16;;;;;;;;;;;;;;;9.93;45.69;100301.63;5026547;28;19913;-83
2022/01/15 12:52:42;;;;;;;;;;;;;;;10.10;46.29;100293.66;5024957;28;19951;-84
2022/01/15 12:55:07;;;;;;;;;;;;;;;9.95;45.58;100302.50;5025775;28;19948;-83
2022/01/15 12:57:46;;;;;;;;;;;;;;;10.12;46.02;100304.19;5016783;28;20330;-84
2022/01/15 13:00:19;;;;;;;;;;;;;;;9.94;45.49;100302.50;5018428;28;20737;-83
2022/01/15 13:02:45;;;;;;;;;;;;;;;9.77;45.40;100274.41;5024915;28;19940;-83
2022/01/15 13:05:12;;;;;;;;;;;;;;;9.76;45.02;100298.13;5025647;28;19913;-83
2022/01/15 13:07:47;;;;;;;;;;;;;;;9.65;44.61;100299.03;5020486;28;19913;-84
2022/01/15 13:10:28;;;;;;;;;;;;;;;9.64;43.75;100302.56;5023276;28;20000;-83
2022/01/15 13:12:54;;;;;;;;;;;;;;;9.76;43.91;100304.28;5025665;28;19971;-82
2022/01/15 13:15:20;;;;;;;;;;;;;;;9.82;43.91;100296.38;5025977;28;19913;-82